sensor_id;sensor_type;location;lat;lon;timestamp;pressure;altitude;pressure_sealevel;temperature;humidity
51123;BME280;37162;41.724;13.346;2023-02-12T00:02:23;98105.94;;;15.22;51.60
51123;BME280;37162;41.724;13.346;2023-02-12T00:04:49;98103.06;;;15.24;51.55
51123;BME280;37162;41.724;13.346;2023-02-12T00:07:15;98092.03;;;15.12;51.63
51123;BME280;37162;41.724;13.346;2023-02-12T00:09:41;98105.72;;;15.24;51.44
51123;BME280;37162;41.724;13.346;2023-02-12T00:12:06;98108.41;;;15.24;51.55
51123;BME280;37162;41.724;13.346;2023-02-12T00:14:32;98106.75;;;15.23;51.51
51123;BME280;37162;41.724;13.346;2023-02-12T00:16:58;98100.94;;;15.19;51.41
51123;BME280;37162;41.724;13.346;2023-02-12T00:19:24;98102.44;;;15.22;51.33
51123;BME280;37162;41.724;13.346;2023-02-12T00:21:49;98108.59;;;15.22;51.40
51123;BME280;37162;41.724;13.346;2023-02-12T00:24:15;98100.78;;;15.21;51.46
51123;BME280;37162;41.724;13.346;2023-02-12T00:26:40;98104.47;;;15.20;51.11
51123;BME280;37162;41.724;13.346;2023-02-12T00:29:06;98101.81;;;15.20;51.41
51123;BME280;37162;41.724;13.346;2023-02-12T00:31:31;98100.13;;;15.19;51.29
51123;BME280;37162;41.724;13.346;2023-02-12T00:33:58;98102.78;;;15.19;51.46
51123;BME280;37162;41.724;13.346;2023-02-12T00:36:26;98093.13;;;15.18;51.35
51123;BME280;37162;41.724;13.346;2023-02-12T00:38:54;98100.31;;;15.17;51.33
51123;BME280;37162;41.724;13.346;2023-02-12T00:41:20;98093.31;;;15.16;51.40
51123;BME280;37162;41.724;13.346;2023-02-12T00:43:46;98099.50;;;15.17;51.37
51123;BME280;37162;41.724;13.346;2023-02-12T00:46:11;98101.34;;;15.16;51.50
51123;BME280;37162;41.724;13.346;2023-02-12T00:48:37;98083.53;;;15.08;51.44
51123;BME280;37162;41.724;13.346;2023-02-12T00:51:04;98102.38;;;15.15;51.67
51123;BME280;37162;41.724;13.346;2023-02-12T00:53:30;98093.47;;;15.15;51.70
51123;BME280;37162;41.724;13.346;2023-02-12T00:55:56;98097.00;;;15.15;51.78
51123;BME280;37162;41.724;13.346;2023-02-12T00:58:22;98091.66;;;15.15;51.78
51123;BME280;37162;41.724;13.346;2023-02-12T01:00:47;98095.34;;;15.14;51.50
51123;BME280;37162;41.724;13.346;2023-02-12T01:03:14;98088.97;;;15.15;51.46
51123;BME280;37162;41.724;13.346;2023-02-12T01:05:40;98087.97;;;15.16;51.80
51123;BME280;37162;41.724;13.346;2023-02-12T01:08:05;98087.97;;;15.16;51.79
51123;BME280;37162;41.724;13.346;2023-02-12T01:10:31;98087.13;;;15.16;51.57
51123;BME280;37162;41.724;13.346;2023-02-12T01:12:57;98085.28;;;15.16;51.51
51123;BME280;37162;41.724;13.346;2023-02-12T01:15:22;98077.25;;;15.16;51.41
51123;BME280;37162;41.724;13.346;2023-02-12T01:17:51;98080.75;;;15.17;51.39
51123;BME280;37162;41.724;13.346;2023-02-12T01:20:20;98080.94;;;15.15;51.49
51123;BME280;37162;41.724;13.346;2023-02-12T01:22:46;98081.78;;;15.16;51.29
51123;BME280;37162;41.724;13.346;2023-02-12T01:25:11;98063.78;;;15.09;51.39
51123;BME280;37162;41.724;13.346;2023-02-12T01:27:37;98079.94;;;15.16;51.42
51123;BME280;37162;41.724;13.346;2023-02-12T01:30:05;98075.41;;;15.17;51.39
51123;BME280;37162;41.724;13.346;2023-02-12T01:32:31;98071.91;;;15.16;51.23
51123;BME280;37162;41.724;13.346;2023-02-12T01:34:58;98072.72;;;15.17;51.35
51123;BME280;37162;41.724;13.346;2023-02-12T01:37:23;98068.41;;;15.16;51.40
51123;BME280;37162;41.724;13.346;2023-02-12T01:39:48;98063.88;;;15.16;51.46
51123;BME280;37162;41.724;13.346;2023-02-12T01:42:15;98066.53;;;15.16;51.49
51123;BME280;37162;41.724;13.346;2023-02-12T01:45:22;98062.22;;;15.15;51.35
51123;BME280;37162;41.724;13.346;2023-02-12T01:47:54;98064.03;;;15.15;51.35
51123;BME280;37162;41.724;13.346;2023-02-12T01:50:21;98054.34;;;15.14;51.34
51123;BME280;37162;41.724;13.346;2023-02-12T01:52:50;98032.44;;;15.03;51.39
51123;BME280;37162;41.724;13.346;2023-02-12T01:55:18;98047.16;;;15.14;51.50
51123;BME280;37162;41.724;13.346;2023-02-12T01:57:45;98056.00;;;15.15;51.49
51123;BME280;37162;41.724;13.346;2023-02-12T02:00:17;98048.84;;;15.15;51.73
51123;BME280;37162;41.724;13.346;2023-02-12T02:02:46;98050.47;;;15.16;51.90
51123;BME280;37162;41.724;13.346;2023-02-12T02:05:17;98048.84;;;15.15;52.03
51123;BME280;37162;41.724;13.346;2023-02-12T02:07:45;98056.88;;;15.15;51.81
51123;BME280;37162;41.724;13.346;2023-02-12T02:10:11;98047.97;;;15.15;51.75
51123;BME280;37162;41.724;13.346;2023-02-12T02:12:37;98044.47;;;15.14;51.70
51123;BME280;37162;41.724;13.346;2023-02-12T02:15:22;98041.78;;;15.14;51.51
51123;BME280;37162;41.724;13.346;2023-02-12T02:18:00;98040.16;;;15.13;51.65
51123;BME280;37162;41.724;13.346;2023-02-12T02:37:31;98020.13;;;15.09;51.37
51123;BME280;37162;41.724;13.346;2023-02-12T02:40:21;98022.19;;;15.07;51.27
51123;BME280;37162;41.724;13.346;2023-02-12T02:43:01;98013.22;;;15.00;51.40
51123;BME280;37162;41.724;13.346;2023-02-12T02:45:34;98019.50;;;15.07;51.41
51123;BME280;37162;41.724;13.346;2023-02-12T02:48:26;98018.69;;;15.06;51.33
51123;BME280;37162;41.724;13.346;2023-02-12T02:50:59;98009.56;;;15.01;51.58
51123;BME280;37162;41.724;13.346;2023-02-12T02:53:30;98014.50;;;15.04;51.49
51123;BME280;37162;41.724;13.346;2023-02-12T02:56:00;98016.16;;;15.05;51.44
51123;BME280;37162;41.724;13.346;2023-02-12T02:58:33;98015.34;;;15.04;51.18
51123;BME280;37162;41.724;13.346;2023-02-12T03:01:05;98014.50;;;15.04;51.59
51123;BME280;37162;41.724;13.346;2023-02-12T03:03:33;98012.66;;;15.04;51.72
51123;BME280;37162;41.724;13.346;2023-02-12T03:06:08;97998.00;;;15.00;51.70
51123;BME280;37162;41.724;13.346;2023-02-12T03:08:41;98005.47;;;15.05;51.72
51123;BME280;37162;41.724;13.346;2023-02-12T03:11:23;98009.16;;;15.04;51.62
51123;BME280;37162;41.724;13.346;2023-02-12T03:16:53;98006.28;;;15.05;51.75
51123;BME280;37162;41.724;13.346;2023-02-12T03:19:24;98009.38;;;15.02;51.42
51123;BME280;37162;41.724;13.346;2023-02-12T03:22:03;98006.69;;;15.02;51.53
51123;BME280;37162;41.724;13.346;2023-02-12T03:27:12;97994.69;;;14.98;51.28
51123;BME280;37162;41.724;13.346;2023-02-12T03:29:40;98011.47;;;15.07;51.40
51123;BME280;37162;41.724;13.346;2023-02-12T03:32:32;98013.50;;;15.05;51.36
51123;BME280;37162;41.724;13.346;2023-02-12T03:37:35;98006.13;;;15.07;51.18
51123;BME280;37162;41.724;13.346;2023-02-12T03:40:26;97998.91;;;15.07;51.47
51123;BME280;37162;41.724;13.346;2023-02-12T03:45:50;98005.28;;;15.06;51.42
51123;BME280;37162;41.724;13.346;2023-02-12T03:48:29;97996.44;;;15.06;51.36
51123;BME280;37162;41.724;13.346;2023-02-12T03:51:02;97999.84;;;15.00;51.30
51123;BME280;37162;41.724;13.346;2023-02-12T03:53:30;98002.78;;;15.05;51.24
51123;BME280;37162;41.724;13.346;2023-02-12T03:56:06;97993.94;;;15.04;51.37
51123;BME280;37162;41.724;13.346;2023-02-12T03:58:34;97999.28;;;15.04;51.31
51123;BME280;37162;41.724;13.346;2023-02-12T04:01:02;98001.97;;;15.04;51.33
51123;BME280;37162;41.724;13.346;2023-02-12T04:03:29;97997.63;;;15.03;51.36
51123;BME280;37162;41.724;13.346;2023-02-12T04:05:54;98004.63;;;15.04;51.38
51123;BME280;37162;41.724;13.346;2023-02-12T04:08:20;98008.13;;;15.05;51.67
51123;BME280;37162;41.724;13.346;2023-02-12T04:11:00;98000.94;;;15.05;51.93
51123;BME280;37162;41.724;13.346;2023-02-12T04:14:07;97996.59;;;15.04;51.88
51123;BME280;37162;41.724;13.346;2023-02-12T04:16:43;97993.94;;;15.04;51.60
51123;BME280;37162;41.724;13.346;2023-02-12T04:19:14;97995.78;;;15.04;51.64
51123;BME280;37162;41.724;13.346;2023-02-12T04:29:58;97992.28;;;15.03;51.43
51123;BME280;37162;41.724;13.346;2023-02-12T04:32:34;97996.81;;;15.03;51.39
51123;BME280;37162;41.724;13.346;2023-02-12T04:37:49;98000.31;;;15.03;51.27
51123;BME280;37162;41.724;13.346;2023-02-12T04:40:19;97992.03;;;14.98;51.28
51123;BME280;37162;41.724;13.346;2023-02-12T04:42:47;97981.25;;;14.92;50.99
51123;BME280;37162;41.724;13.346;2023-02-12T04:45:18;97997.84;;;15.02;51.00
51123;BME280;37162;41.724;13.346;2023-02-12T04:47:45;97993.50;;;15.01;51.12
51123;BME280;37162;41.724;13.346;2023-02-12T04:50:11;97988.72;;;14.96;51.21
51123;BME280;37162;41.724;13.346;2023-02-12T04:52:36;98000.69;;;15.00;51.39
51123;BME280;37162;41.724;13.346;2023-02-12T04:55:02;97997.19;;;15.00;51.52
51123;BME280;37162;41.724;13.346;2023-02-12T04:57:27;97976.28;;;14.89;51.35
51123;BME280;37162;41.724;13.346;2023-02-12T04:59:53;97985.19;;;14.96;51.35
51123;BME280;37162;41.724;13.346;2023-02-12T05:02:18;97992.84;;;14.99;51.26
51123;BME280;37162;41.724;13.346;2023-02-12T05:04:44;97981.88;;;14.94;51.41
51123;BME280;37162;41.724;13.346;2023-02-12T05:07:10;97969.28;;;14.88;51.30
51123;BME280;37162;41.724;13.346;2023-02-12T05:09:36;97991.81;;;15.00;51.41
51123;BME280;37162;41.724;13.346;2023-02-12T05:12:02;97988.31;;;14.99;51.46
51123;BME280;37162;41.724;13.346;2023-02-12T05:14:27;97987.50;;;14.99;51.61
51123;BME280;37162;41.724;13.346;2023-02-12T05:16:53;97981.94;;;15.00;51.68
51123;BME280;37162;41.724;13.346;2023-02-12T05:19:18;97982.97;;;14.99;51.92
51123;BME280;37162;41.724;13.346;2023-02-12T05:21:44;97977.63;;;14.99;52.00
51123;BME280;37162;41.724;13.346;2023-02-12T05:24:09;97980.13;;;15.01;51.66
51123;BME280;37162;41.724;13.346;2023-02-12T05:26:35;97976.78;;;14.99;51.62
51123;BME280;37162;41.724;13.346;2023-02-12T05:29:01;97983.78;;;15.00;51.53
51123;BME280;37162;41.724;13.346;2023-02-12T05:31:27;97976.59;;;15.00;51.40
51123;BME280;37162;41.724;13.346;2023-02-12T05:33:52;97970.16;;;14.95;51.50
51123;BME280;37162;41.724;13.346;2023-02-12T05:36:21;97983.63;;;15.01;51.31
51123;BME280;37162;41.724;13.346;2023-02-12T05:38:47;97982.50;;;14.96;51.35
51123;BME280;37162;41.724;13.346;2023-02-12T05:41:16;97986.31;;;15.01;51.26
51123;BME280;37162;41.724;13.346;2023-02-12T05:43:42;97983.78;;;15.00;51.34
51123;BME280;37162;41.724;13.346;2023-02-12T05:46:08;97994.13;;;15.03;51.19
51123;BME280;37162;41.724;13.346;2023-02-12T05:48:35;97994.13;;;15.03;51.16
51123;BME280;37162;41.724;13.346;2023-02-12T05:51:16;97995.97;;;15.02;51.23
51123;BME280;37162;41.724;13.346;2023-02-12T05:53:42;97994.34;;;15.01;51.13
51123;BME280;37162;41.724;13.346;2023-02-12T05:56:16;97992.47;;;15.02;51.24
51123;BME280;37162;41.724;13.346;2023-02-12T05:58:44;97995.16;;;15.02;51.31
51123;BME280;37162;41.724;13.346;2023-02-12T06:01:25;97997.00;;;15.01;51.00
51123;BME280;37162;41.724;13.346;2023-02-12T06:03:51;97993.69;;;14.99;51.21
51123;BME280;37162;41.724;13.346;2023-02-12T06:06:17;97989.34;;;14.98;51.38
51123;BME280;37162;41.724;13.346;2023-02-12T06:08:42;97999.22;;;14.98;51.21
51123;BME280;37162;41.724;13.346;2023-02-12T06:11:11;98006.44;;;14.97;51.42
51123;BME280;37162;41.724;13.346;2023-02-12T06:13:37;98007.47;;;14.96;51.43
51123;BME280;37162;41.724;13.346;2023-02-12T06:16:03;98010.31;;;14.95;51.41
51123;BME280;37162;41.724;13.346;2023-02-12T06:18:28;98017.31;;;14.96;51.54
51123;BME280;37162;41.724;13.346;2023-02-12T06:20:54;98016.47;;;14.95;51.38
51123;BME280;37162;41.724;13.346;2023-02-12T06:23:21;98019.97;;;14.96;51.50
51123;BME280;37162;41.724;13.346;2023-02-12T06:25:48;98021.00;;;14.95;51.50
51123;BME280;37162;41.724;13.346;2023-02-12T06:28:13;98022.84;;;14.94;51.43
51123;BME280;37162;41.724;13.346;2023-02-12T06:30:39;98023.69;;;14.95;51.44
51123;BME280;37162;41.724;13.346;2023-02-12T06:33:04;98012.34;;;14.93;51.41
51123;BME280;37162;41.724;13.346;2023-02-12T06:35:30;98013.75;;;14.89;52.23
51123;BME280;37162;41.724;13.346;2023-02-12T06:37:56;98030.69;;;14.96;51.74
51123;BME280;37162;41.724;13.346;2023-02-12T06:40:21;98026.19;;;14.96;51.37
51123;BME280;37162;41.724;13.346;2023-02-12T06:42:47;98032.38;;;14.97;51.45
51123;BME280;37162;41.724;13.346;2023-02-12T06:45:12;98034.00;;;14.98;51.41
51123;BME280;37162;41.724;13.346;2023-02-12T06:47:38;98034.00;;;14.98;51.59
51123;BME280;37162;41.724;13.346;2023-02-12T06:50:04;98046.09;;;14.94;51.49
51123;BME280;37162;41.724;13.346;2023-02-12T06:52:29;98055.22;;;14.99;51.45
51123;BME280;37162;41.724;13.346;2023-02-12T06:54:55;98049.03;;;14.99;51.48
51123;BME280;37162;41.724;13.346;2023-02-12T06:57:20;98031.91;;;14.93;51.59
51123;BME280;37162;41.724;13.346;2023-02-12T06:59:45;98050.69;;;15.00;51.40
51123;BME280;37162;41.724;13.346;2023-02-12T07:02:11;98043.91;;;14.97;51.47
51123;BME280;37162;41.724;13.346;2023-02-12T07:04:37;98032.72;;;14.94;51.44
51123;BME280;37162;41.724;13.346;2023-02-12T07:07:04;98048.69;;;15.02;51.30
51123;BME280;37162;41.724;13.346;2023-02-12T07:09:29;98050.34;;;15.03;51.33
51123;BME280;37162;41.724;13.346;2023-02-12T07:11:57;98052.81;;;15.04;51.22
51123;BME280;37162;41.724;13.346;2023-02-12T07:14:23;98041.94;;;15.06;51.06
51123;BME280;37162;41.724;13.346;2023-02-12T07:16:49;98046.63;;;15.04;51.00
51123;BME280;37162;41.724;13.346;2023-02-12T07:19:15;98046.25;;;15.07;51.19
51123;BME280;37162;41.724;13.346;2023-02-12T07:21:41;98045.44;;;15.06;51.08
51123;BME280;37162;41.724;13.346;2023-02-12T07:24:09;98037.56;;;15.05;50.91
51123;BME280;37162;41.724;13.346;2023-02-12T07:26:36;98047.97;;;15.15;51.10
51123;BME280;37162;41.724;13.346;2023-02-12T07:29:02;98045.88;;;15.10;51.38
51123;BME280;37162;41.724;13.346;2023-02-12T07:31:27;98056.88;;;15.15;51.53
51123;BME280;37162;41.724;13.346;2023-02-12T07:33:54;98064.94;;;15.22;51.52
51123;BME280;37162;41.724;13.346;2023-02-12T07:36:20;98071.97;;;15.23;51.38
51123;BME280;37162;41.724;13.346;2023-02-12T07:38:46;98083.31;;;15.25;50.82
51123;BME280;37162;41.724;13.346;2023-02-12T07:41:15;98078.59;;;15.27;50.86
51123;BME280;37162;41.724;13.346;2023-02-12T07:43:43;98064.94;;;15.22;50.56
51123;BME280;37162;41.724;13.346;2023-02-12T07:46:23;98070.81;;;15.32;50.42
51123;BME280;37162;41.724;13.346;2023-02-12T07:48:54;98070.63;;;15.33;50.15
51123;BME280;37162;41.724;13.346;2023-02-12T07:51:20;98056.25;;;15.34;49.98
51123;BME280;37162;41.724;13.346;2023-02-12T07:53:46;98044.25;;;15.30;49.87
51123;BME280;37162;41.724;13.346;2023-02-12T07:56:20;98060.00;;;15.40;49.77
51123;BME280;37162;41.724;13.346;2023-02-12T07:58:49;98063.50;;;15.41;49.27
51123;BME280;37162;41.724;13.346;2023-02-12T08:01:22;98060.63;;;15.42;49.24
51123;BME280;37162;41.724;13.346;2023-02-12T08:03:49;98063.75;;;15.46;48.97
51123;BME280;37162;41.724;13.346;2023-02-12T08:06:17;98059.03;;;15.48;48.67
51123;BME280;37162;41.724;13.346;2023-02-12T08:08:45;98055.97;;;15.51;48.79
51123;BME280;37162;41.724;13.346;2023-02-12T08:11:11;98054.78;;;15.53;48.93
51123;BME280;37162;41.724;13.346;2023-02-12T08:13:38;98053.53;;;15.56;49.04
51123;BME280;37162;41.724;13.346;2023-02-12T08:16:06;98048.00;;;15.57;48.91
51123;BME280;37162;41.724;13.346;2023-02-12T08:18:33;98048.91;;;15.65;49.37
51123;BME280;37162;41.724;13.346;2023-02-12T08:21:09;98057.66;;;15.73;49.52
51123;BME280;37162;41.724;13.346;2023-02-12T08:23:36;98055.59;;;15.75;49.39
51123;BME280;37162;41.724;13.346;2023-02-12T08:29:00;98064.03;;;15.72;48.07
51123;BME280;37162;41.724;13.346;2023-02-12T08:31:32;98069.00;;;15.75;47.52
51123;BME280;37162;41.724;13.346;2023-02-12T08:33:58;98065.09;;;15.78;47.39
51123;BME280;37162;41.724;13.346;2023-02-12T08:36:26;98063.72;;;15.82;47.36
51123;BME280;37162;41.724;13.346;2023-02-12T08:38:52;98063.53;;;15.90;47.68
51123;BME280;37162;41.724;13.346;2023-02-12T08:41:20;98049.47;;;15.81;47.04
51123;BME280;37162;41.724;13.346;2023-02-12T08:43:46;98052.56;;;15.85;47.18
51123;BME280;37162;41.724;13.346;2023-02-12T08:46:22;98053.22;;;15.87;47.17
51123;BME280;37162;41.724;13.346;2023-02-12T08:48:54;98042.88;;;15.84;46.82
51123;BME280;37162;41.724;13.346;2023-02-12T08:51:22;98047.88;;;15.87;47.06
51123;BME280;37162;41.724;13.346;2023-02-12T08:53:51;98034.25;;;15.89;47.31
51123;BME280;37162;41.724;13.346;2023-02-12T08:56:17;98041.09;;;15.91;47.56
51123;BME280;37162;41.724;13.346;2023-02-12T08:58:44;98043.38;;;15.94;48.05
51123;BME280;37162;41.724;13.346;2023-02-12T09:01:12;98045.69;;;15.97;48.31
51123;BME280;37162;41.724;13.346;2023-02-12T09:03:38;98046.28;;;15.99;48.22
51123;BME280;37162;41.724;13.346;2023-02-12T09:06:05;98033.75;;;16.00;48.29
51123;BME280;37162;41.724;13.346;2023-02-12T09:08:31;98041.81;;;16.06;48.24
51123;BME280;37162;41.724;13.346;2023-02-12T09:10:57;98042.28;;;16.10;48.36
51123;BME280;37162;41.724;13.346;2023-02-12T09:13:24;98041.03;;;16.13;48.34
51123;BME280;37162;41.724;13.346;2023-02-12T09:15:49;98039.63;;;16.17;48.60
51123;BME280;37162;41.724;13.346;2023-02-12T09:18:15;98040.06;;;16.20;48.42
51123;BME280;37162;41.724;13.346;2023-02-12T09:20:43;98030.78;;;16.23;48.34
51123;BME280;37162;41.724;13.346;2023-02-12T09:23:11;98036.59;;;16.26;48.52
51123;BME280;37162;41.724;13.346;2023-02-12T09:25:43;98016.97;;;16.19;48.26
51123;BME280;37162;41.724;13.346;2023-02-12T09:28:09;98028.78;;;16.31;48.16
51123;BME280;37162;41.724;13.346;2023-02-12T09:30:36;98025.88;;;16.26;48.16
51123;BME280;37162;41.724;13.346;2023-02-12T09:33:02;98034.78;;;16.33;48.25
51123;BME280;37162;41.724;13.346;2023-02-12T09:35:27;98029.25;;;16.42;48.37
51123;BME280;37162;41.724;13.346;2023-02-12T09:37:53;98026.16;;;16.45;47.91
51123;BME280;37162;41.724;13.346;2023-02-12T09:49:27;98035.72;;;16.54;47.77
51123;BME280;37162;41.724;13.346;2023-02-12T09:51:31;98034.88;;;16.53;47.70
51123;BME280;37162;41.724;13.346;2023-02-12T09:54:04;98023.72;;;16.50;47.81
51123;BME280;37162;41.724;13.346;2023-02-12T09:56:33;98032.19;;;16.47;47.69
51123;BME280;37162;41.724;13.346;2023-02-12T09:59:00;98036.28;;;16.43;47.69
51123;BME280;37162;41.724;13.346;2023-02-12T10:01:27;98037.50;;;16.40;47.34
51123;BME280;37162;41.724;13.346;2023-02-12T10:03:54;98036.66;;;16.40;47.59
51123;BME280;37162;41.724;13.346;2023-02-12T10:06:24;98041.22;;;16.39;47.84
51123;BME280;37162;41.724;13.346;2023-02-12T10:09:21;98042.03;;;16.40;47.86
51123;BME280;37162;41.724;13.346;2023-02-12T10:28:38;98019.78;;;16.46;47.95
51123;BME280;37162;41.724;13.346;2023-02-12T10:31:10;98017.53;;;16.49;47.71
51123;BME280;37162;41.724;13.346;2023-02-12T10:33:44;98010.53;;;16.55;47.52
51123;BME280;37162;41.724;13.346;2023-02-12T10:39:20;97991.59;;;16.63;47.79
51123;BME280;37162;41.724;13.346;2023-02-12T10:41:52;97990.59;;;16.71;47.96
51123;BME280;37162;41.724;13.346;2023-02-12T10:44:20;97997.03;;;16.76;48.18
51123;BME280;37162;41.724;13.346;2023-02-12T10:46:46;97998.91;;;16.82;47.89
51123;BME280;37162;41.724;13.346;2023-02-12T10:49:14;97994.59;;;16.88;47.81
51123;BME280;37162;41.724;13.346;2023-02-12T10:57:27;97993.34;;;16.84;47.32
51123;BME280;37162;41.724;13.346;2023-02-12T10:59:53;97981.56;;;16.78;47.39
51123;BME280;37162;41.724;13.346;2023-02-12T11:04:48;97986.22;;;16.70;47.08
51123;BME280;37162;41.724;13.346;2023-02-12T11:07:14;97987.88;;;16.64;47.08
51123;BME280;37162;41.724;13.346;2023-02-12T11:09:48;97977.13;;;16.57;46.82
51123;BME280;37162;41.724;13.346;2023-02-12T11:12:33;97979.81;;;16.57;47.14
51123;BME280;37162;41.724;13.346;2023-02-12T11:15:21;97977.50;;;16.54;47.18
51123;BME280;37162;41.724;13.346;2023-02-12T11:18:08;97982.28;;;16.52;47.33
51123;BME280;37162;41.724;13.346;2023-02-12T11:20:54;97973.56;;;16.50;47.25
51123;BME280;37162;41.724;13.346;2023-02-12T11:23:46;97964.25;;;16.46;47.41
51123;BME280;37162;41.724;13.346;2023-02-12T11:34:13;97964.47;;;16.38;47.59
51123;BME280;37162;41.724;13.346;2023-02-12T11:36:42;97945.03;;;16.29;47.87
51123;BME280;37162;41.724;13.346;2023-02-12T11:39:47;97952.66;;;16.32;48.37
51123;BME280;37162;41.724;13.346;2023-02-12T11:42:19;97935.50;;;16.20;49.29
51123;BME280;37162;41.724;13.346;2023-02-12T11:47:19;97950.16;;;16.24;50.20
51123;BME280;37162;41.724;13.346;2023-02-12T11:49:52;97950.56;;;16.21;50.40
51123;BME280;37162;41.724;13.346;2023-02-12T11:52:28;97938.78;;;16.16;50.72
51123;BME280;37162;41.724;13.346;2023-02-12T11:54:58;97934.63;;;16.13;50.69
51123;BME280;37162;41.724;13.346;2023-02-12T11:57:44;97935.03;;;16.10;50.39
51123;BME280;37162;41.724;13.346;2023-02-12T12:02:49;97932.13;;;16.05;49.88
51123;BME280;37162;41.724;13.346;2023-02-12T12:05:19;97923.44;;;16.03;49.78
51123;BME280;37162;41.724;13.346;2023-02-12T12:07:52;97924.69;;;16.00;49.74
51123;BME280;37162;41.724;13.346;2023-02-12T12:10:49;97919.69;;;15.97;49.77
51123;BME280;37162;41.724;13.346;2023-02-12T12:13:27;97911.63;;;15.91;49.87
51123;BME280;37162;41.724;13.346;2023-02-12T12:16:03;97923.81;;;15.93;49.67
51123;BME280;37162;41.724;13.346;2023-02-12T12:19:02;97911.63;;;15.91;49.68
51123;BME280;37162;41.724;13.346;2023-02-12T12:21:58;97909.97;;;15.90;49.83
51123;BME280;37162;41.724;13.346;2023-02-12T12:24:44;97901.31;;;15.88;50.06
51123;BME280;37162;41.724;13.346;2023-02-12T12:27:30;97901.50;;;15.86;49.94
51123;BME280;37162;41.724;13.346;2023-02-12T12:30:21;97898.78;;;15.79;49.94
51123;BME280;37162;41.724;13.346;2023-02-12T12:32:50;97894.00;;;15.75;50.10
51123;BME280;37162;41.724;13.346;2023-02-12T12:35:17;97899.44;;;15.81;50.13
51123;BME280;37162;41.724;13.346;2023-02-12T12:38:15;97901.28;;;15.81;49.95
51123;BME280;37162;41.724;13.346;2023-02-12T12:41:01;97895.28;;;15.79;50.33
51123;BME280;37162;41.724;13.346;2023-02-12T12:46:33;97889.91;;;15.79;50.33
51123;BME280;37162;41.724;13.346;2023-02-12T12:49:21;97882.09;;;15.77;50.28
51123;BME280;37162;41.724;13.346;2023-02-12T12:54:52;97882.09;;;15.77;50.76
51123;BME280;37162;41.724;13.346;2023-02-12T12:58:00;97874.88;;;15.78;51.23
51123;BME280;37162;41.724;13.346;2023-02-12T13:00:47;97876.53;;;15.79;51.74
51123;BME280;37162;41.724;13.346;2023-02-12T13:12:07;97866.00;;;15.77;51.36
51123;BME280;37162;41.724;13.346;2023-02-12T13:17:35;97869.50;;;15.78;51.14
51123;BME280;37162;41.724;13.346;2023-02-12T13:20:24;97872.41;;;15.76;50.98
51123;BME280;37162;41.724;13.346;2023-02-12T13:22:58;97876.91;;;15.76;51.13
51123;BME280;37162;41.724;13.346;2023-02-12T13:27:54;97884.13;;;15.75;50.77
51123;BME280;37162;41.724;13.346;2023-02-12T13:30:36;97878.97;;;15.74;50.82
51123;BME280;37162;41.724;13.346;2023-02-12T13:33:22;97885.16;;;15.74;51.12
51123;BME280;37162;41.724;13.346;2023-02-12T13:35:55;97874.63;;;15.73;51.16
51123;BME280;37162;41.724;13.346;2023-02-12T13:38:30;97854.84;;;15.67;51.26
51123;BME280;37162;41.724;13.346;2023-02-12T13:41:03;97871.97;;;15.73;51.19
51123;BME280;37162;41.724;13.346;2023-02-12T13:46:10;97878.72;;;15.69;51.50
51123;BME280;37162;41.724;13.346;2023-02-12T13:51:19;97884.31;;;15.67;51.74
51123;BME280;37162;41.724;13.346;2023-02-12T13:58:58;97869.44;;;15.65;52.22
51123;BME280;37162;41.724;13.346;2023-02-12T14:01:44;97868.59;;;15.64;52.27
51123;BME280;37162;41.724;13.346;2023-02-12T14:04:32;97859.75;;;15.64;52.37
51123;BME280;37162;41.724;13.346;2023-02-12T14:07:02;97870.47;;;15.64;52.44
51123;BME280;37162;41.724;13.346;2023-02-12T14:09:44;97874.13;;;15.63;52.52
51123;BME280;37162;41.724;13.346;2023-02-12T14:14:54;97877.66;;;15.63;52.26
51123;BME280;37162;41.724;13.346;2023-02-12T14:27:53;97854.13;;;15.58;52.18
51123;BME280;37162;41.724;13.346;2023-02-12T14:30:35;97853.06;;;15.53;52.22
51123;BME280;37162;41.724;13.346;2023-02-12T14:33:09;97863.38;;;15.56;52.22
51123;BME280;37162;41.724;13.346;2023-02-12T14:35:45;97859.88;;;15.55;52.49
51123;BME280;37162;41.724;13.346;2023-02-12T14:51:15;97865.59;;;15.52;52.78
51123;BME280;37162;41.724;13.346;2023-02-12T14:53:41;97881.50;;;15.54;52.77
51123;BME280;37162;41.724;13.346;2023-02-12T14:56:08;97878.00;;;15.53;52.77
51123;BME280;37162;41.724;13.346;2023-02-12T14:58:36;97868.09;;;15.54;52.77
51123;BME280;37162;41.724;13.346;2023-02-12T15:01:03;97859.59;;;15.44;52.85
51123;BME280;37162;41.724;13.346;2023-02-12T15:03:43;97896.53;;;15.55;53.03
51123;BME280;37162;41.724;13.346;2023-02-12T15:06:21;97892.84;;;15.56;53.53
51123;BME280;37162;41.724;13.346;2023-02-12T15:09:01;97881.88;;;15.51;53.36
51123;BME280;37162;41.724;13.346;2023-02-12T15:11:54;97879.44;;;15.56;53.75
51123;BME280;37162;41.724;13.346;2023-02-12T15:14:26;97882.94;;;15.56;53.92
51123;BME280;37162;41.724;13.346;2023-02-12T15:17:20;97888.28;;;15.56;53.67
51123;BME280;37162;41.724;13.346;2023-02-12T15:19:59;97879.44;;;15.56;53.25
51123;BME280;37162;41.724;13.346;2023-02-12T15:24:52;97891.81;;;15.57;53.10
51123;BME280;37162;41.724;13.346;2023-02-12T15:27:18;97894.31;;;15.58;52.96
51123;BME280;37162;41.724;13.346;2023-02-12T15:29:52;97892.84;;;15.56;53.11
51123;BME280;37162;41.724;13.346;2023-02-12T15:32:27;97893.47;;;15.58;53.05
51123;BME280;37162;41.724;13.346;2023-02-12T15:34:53;97911.19;;;15.59;53.22
51123;BME280;37162;41.724;13.346;2023-02-12T15:37:25;97905.84;;;15.59;53.19
51123;BME280;37162;41.724;13.346;2023-02-12T15:39:54;97906.06;;;15.57;53.04
51123;BME280;37162;41.724;13.346;2023-02-12T15:42:35;97914.09;;;15.57;53.22